Time;durP1;ratioP1;P1;durP2;ratioP2;P2;SDS_P1;SDS_P2;PMS_P1;PMS_P2;Temp;Humidity;BMP_temperature;BMP_pressure;BME280_temperature;BME280_humidity;BME280_pressure;Samples;Min_cycle;Max_cycle;Signal;HPM_P1;HPM_P2
2022/04/08 00:00:27;;;;;;;;;;;;;;;22.66;36.47;93885.13;2040184;29;1539;-67
2022/04/08 00:01:29;;;;;;;;;;;;;;;22.66;36.72;93887.00;2032674;29;1685;-71
2022/04/08 00:02:31;;;;;;;;;;;;;;;22.67;36.48;93883.25;2025754;29;1057;-71
2022/04/08 00:03:32;;;;;;;;;;;;;;;22.66;36.69;93887.00;2027692;29;1473;-71
2022/04/08 00:04:34;;;;;;;;;;;;;;;22.67;36.72;93888.59;2033268;29;1689;-69
2022/04/08 00:05:36;;;;;;;;;;;;;;;22.66;36.72;93885.13;2033679;29;1649;-70
2022/04/08 00:06:37;;;;;;;;;;;;;;;22.66;36.34;93879.75;2033943;29;1555;-71
2022/04/08 00:07:40;;;;;;;;;;;;;;;22.66;36.43;93887.00;2041403;29;1005;-71
2022/04/08 00:08:41;;;;;;;;;;;;;;;22.66;36.75;93895.03;2028775;29;1437;-71
2022/04/08 00:09:43;;;;;;;;;;;;;;;22.65;36.57;93896.06;2032019;29;1515;-71
2022/04/08 00:10:44;;;;;;;;;;;;;;;22.65;36.57;93893.38;2032576;29;1675;-71
2022/04/08 00:11:46;;;;;;;;;;;;;;;22.65;36.70;93885.34;2032683;29;1655;-71
2022/04/08 00:12:48;;;;;;;;;;;;;;;22.64;36.42;93889.91;2033749;29;1655;-72
2022/04/08 00:13:52;;;;;;;;;;;;;;;22.58;36.26;93881.00;2033449;29;1203;-69
2022/04/08 00:14:53;;;;;;;;;;;;;;;22.52;36.83;93884.69;2033814;29;2025;-72
2022/04/08 00:15:55;;;;;;;;;;;;;;;22.47;36.78;93895.34;2033510;29;1067;-69
2022/04/08 00:16:57;;;;;;;;;;;;;;;22.43;37.24;93888.88;2033096;29;1699;-67
2022/04/08 00:17:58;;;;;;;;;;;;;;;22.42;37.15;93897.16;2033035;29;989;-70
2022/04/08 00:19:00;;;;;;;;;;;;;;;22.40;37.05;93893.94;2033090;29;1057;-71
2022/04/08 00:20:02;;;;;;;;;;;;;;;22.38;37.32;93906.75;2028748;29;1807;-70
2022/04/08 00:21:04;;;;;;;;;;;;;;;22.37;37.20;93900.59;2033299;29;1580;-70
2022/04/08 00:22:06;;;;;;;;;;;;;;;22.35;37.31;93894.66;2033441;29;1109;-69
2022/04/08 00:23:08;;;;;;;;;;;;;;;22.35;37.32;93900.03;2040072;29;1549;-69
2022/04/08 00:24:09;;;;;;;;;;;;;;;22.34;37.48;93920.63;2039883;29;1892;-69
2022/04/08 00:25:14;;;;;;;;;;;;;;;22.34;37.14;93893.06;2032733;29;1145;-68
2022/04/08 00:26:16;;;;;;;;;;;;;;;22.33;37.57;93888.75;2039937;29;1652;-68
2022/04/08 00:27:17;;;;;;;;;;;;;;;22.33;37.56;93894.09;2031220;29;1583;-67
2022/04/08 00:28:19;;;;;;;;;;;;;;;22.33;37.32;93908.28;2032337;29;1621;-69
2022/04/08 00:29:20;;;;;;;;;;;;;;;22.33;37.31;93910.97;2040254;29;1291;-69
2022/04/08 00:30:22;;;;;;;;;;;;;;;22.33;37.37;93921.66;2033438;29;1877;-69
2022/04/08 00:31:24;;;;;;;;;;;;;;;22.32;37.50;93887.16;2027700;29;1154;-68
2022/04/08 00:32:27;;;;;;;;;;;;;;;22.32;37.57;93892.50;2032669;29;1073;-67
2022/04/08 00:33:30;;;;;;;;;;;;;;;22.33;37.48;93915.50;2033221;29;976;-68
2022/04/08 00:34:31;;;;;;;;;;;;;;;22.33;37.41;93904.81;2031588;29;1526;-68
2022/04/08 00:35:33;;;;;;;;;;;;;;;22.32;37.40;93914.72;2031620;29;1980;-68
2022/04/08 00:36:35;;;;;;;;;;;;;;;22.31;37.23;93913.09;2032754;29;1465;-69
2022/04/08 00:37:36;;;;;;;;;;;;;;;22.31;37.58;93913.09;2039354;29;1495;-69
2022/04/08 00:38:38;;;;;;;;;;;;;;;22.32;37.55;93920.06;2040101;29;1712;-69
2022/04/08 00:39:39;;;;;;;;;;;;;;;22.32;37.65;93924.59;2032384;29;1818;-69
2022/04/08 00:40:41;;;;;;;;;;;;;;;22.33;37.63;93928.88;2033372;29;1172;-69
2022/04/08 00:41:42;;;;;;;;;;;;;;;22.31;37.50;93925.69;2028364;29;1425;-67
2022/04/08 00:42:44;;;;;;;;;;;;;;;22.31;37.53;93929.16;2031104;29;1497;-69
2022/04/08 00:43:45;;;;;;;;;;;;;;;22.31;37.79;93920.31;2032657;29;1683;-68
2022/04/08 00:44:47;;;;;;;;;;;;;;;22.31;37.46;93923.00;2033187;29;1656;-68
2022/04/08 00:45:49;;;;;;;;;;;;;;;22.30;37.79;93916.00;2032026;29;1534;-67
2022/04/08 00:46:50;;;;;;;;;;;;;;;22.29;37.82;93920.56;2032950;29;1660;-69
2022/04/08 00:47:52;;;;;;;;;;;;;;;22.31;37.46;93920.31;2040024;29;1010;-70
2022/04/08 00:48:53;;;;;;;;;;;;;;;22.30;37.39;93926.72;2040239;29;1117;-69
2022/04/08 00:49:55;;;;;;;;;;;;;;;22.30;37.49;93932.88;2031660;29;1527;-67
2022/04/08 00:50:57;;;;;;;;;;;;;;;22.31;37.76;93923.00;2040070;29;1079;-68
2022/04/08 00:51:59;;;;;;;;;;;;;;;22.30;37.66;93924.03;2026023;29;1484;-69
2022/04/08 00:53:01;;;;;;;;;;;;;;;22.30;37.60;93927.53;2035590;29;1121;-68
2022/04/08 00:54:03;;;;;;;;;;;;;;;22.31;37.62;93925.69;2039821;29;1673;-69
2022/04/08 00:55:05;;;;;;;;;;;;;;;22.30;37.70;93918.69;2035565;29;1907;-69
2022/04/08 00:56:07;;;;;;;;;;;;;;;22.29;37.76;93925.91;2040145;29;1002;-66
2022/04/08 00:57:08;;;;;;;;;;;;;;;22.31;37.68;93915.78;2039857;29;1655;-70
2022/04/08 00:58:10;;;;;;;;;;;;;;;22.32;37.53;93913.91;2025205;29;979;-68
2022/04/08 00:59:11;;;;;;;;;;;;;;;22.32;37.64;93919.25;2025344;29;1017;-70
2022/04/08 01:00:13;;;;;;;;;;;;;;;22.31;37.53;93928.34;2027275;29;1505;-69
2022/04/08 01:01:15;;;;;;;;;;;;;;;22.31;37.73;93923.81;2032935;29;1014;-69
2022/04/08 01:02:17;;;;;;;;;;;;;;;22.30;37.77;93916.81;2032949;29;1103;-69
2022/04/08 01:03:19;;;;;;;;;;;;;;;22.30;37.62;93916.81;2033034;29;1015;-71
2022/04/08 01:04:21;;;;;;;;;;;;;;;22.30;37.57;93913.34;2035827;29;1184;-72
2022/04/08 01:05:23;;;;;;;;;;;;;;;22.31;37.80;93906.94;2038987;29;1606;-70
2022/04/08 01:06:27;;;;;;;;;;;;;;;22.30;37.55;93916.81;2032961;29;1556;-69
2022/04/08 01:07:30;;;;;;;;;;;;;;;22.31;37.71;93920.31;2040392;29;1176;-69
2022/04/08 01:08:34;;;;;;;;;;;;;;;22.31;37.65;93912.28;2038343;29;1806;-70
2022/04/08 01:09:35;;;;;;;;;;;;;;;22.30;37.66;93911.47;2024524;29;1006;-69
2022/04/08 01:10:38;;;;;;;;;;;;;;;22.30;37.68;93921.38;2027593;29;1642;-68
2022/04/08 01:11:39;;;;;;;;;;;;;;;22.31;37.61;93914.97;2031650;29;1713;-70
2022/04/08 01:12:41;;;;;;;;;;;;;;;22.31;37.69;93926.47;2032266;29;1177;-68
2022/04/08 01:13:43;;;;;;;;;;;;;;;22.30;37.62;93916.81;2040032;29;1242;-69
2022/04/08 01:14:45;;;;;;;;;;;;;;;22.31;37.85;93917.66;2037223;29;1579;-67
2022/04/08 01:15:46;;;;;;;;;;;;;;;22.30;37.67;93916.81;2031572;29;1899;-69
2022/04/08 01:16:48;;;;;;;;;;;;;;;22.32;37.71;93919.25;2039596;29;979;-69
2022/04/08 01:17:49;;;;;;;;;;;;;;;22.31;37.67;93926.47;2040091;29;1221;-68
2022/04/08 01:18:51;;;;;;;;;;;;;;;22.33;37.68;93920.88;2032368;29;1011;-68
2022/04/08 01:19:53;;;;;;;;;;;;;;;22.33;37.75;93920.88;2032021;29;1513;-67
2022/04/08 01:20:54;;;;;;;;;;;;;;;22.32;37.67;93919.25;2032035;29;1481;-68
2022/04/08 01:21:56;;;;;;;;;;;;;;;22.31;37.82;93925.69;2032684;29;1342;-69
2022/04/08 01:22:57;;;;;;;;;;;;;;;22.32;37.78;93924.59;2032486;29;1888;-67
2022/04/08 01:23:59;;;;;;;;;;;;;;;22.31;38.07;93928.34;2040082;29;1044;-66
2022/04/08 01:25:02;;;;;;;;;;;;;;;22.30;37.84;93926.72;2032453;29;1074;-67
2022/04/08 01:26:05;;;;;;;;;;;;;;;22.29;37.79;93928.59;2027612;29;1842;-66
2022/04/08 01:27:06;;;;;;;;;;;;;;;22.31;37.94;93941.72;2032692;29;1609;-68
2022/04/08 01:28:08;;;;;;;;;;;;;;;22.30;37.82;93940.91;2032787;29;997;-68
2022/04/08 01:29:09;;;;;;;;;;;;;;;22.30;37.95;93934.75;2040190;29;1149;-68
2022/04/08 01:30:16;;;;;;;;;;;;;;;22.29;37.78;93939.28;2038827;29;1539;-66
2022/04/08 01:31:18;;;;;;;;;;;;;;;22.31;38.02;93937.19;2032548;29;1639;-67
2022/04/08 01:32:19;;;;;;;;;;;;;;;22.31;38.04;93936.38;2032785;29;1644;-67
2022/04/08 01:33:21;;;;;;;;;;;;;;;22.30;37.95;93932.88;2031513;29;1549;-67
2022/04/08 01:34:23;;;;;;;;;;;;;;;22.30;38.05;93940.91;2031130;29;1536;-67
2022/04/08 01:35:24;;;;;;;;;;;;;;;22.31;37.93;93941.72;2031840;29;1915;-68
2022/04/08 01:36:26;;;;;;;;;;;;;;;22.30;37.94;93943.56;2033018;29;1036;-67
2022/04/08 01:37:27;;;;;;;;;;;;;;;22.30;38.00;93950.81;2027275;29;1607;-66
2022/04/08 01:38:29;;;;;;;;;;;;;;;22.30;38.00;93937.41;2032904;29;1117;-68
2022/04/08 01:39:30;;;;;;;;;;;;;;;22.30;38.05;93948.94;2032132;29;1085;-67
2022/04/08 01:40:33;;;;;;;;;;;;;;;22.30;38.09;93943.56;2032410;29;1439;-70
2022/04/08 01:41:34;;;;;;;;;;;;;;;22.31;37.82;93939.88;2031974;29;1673;-68
2022/04/08 01:42:36;;;;;;;;;;;;;;;22.32;38.00;93938.00;2032413;29;1204;-69
2022/04/08 01:43:38;;;;;;;;;;;;;;;22.31;38.17;93939.88;2033413;29;1027;-69
2022/04/08 01:44:40;;;;;;;;;;;;;;;22.32;37.99;93938.00;2039828;29;1658;-68
2022/04/08 01:45:41;;;;;;;;;;;;;;;22.31;37.92;93933.72;2031969;29;1109;-70
2022/04/08 01:46:43;;;;;;;;;;;;;;;22.33;37.97;93936.91;2024128;29;1024;-70
2022/04/08 01:47:46;;;;;;;;;;;;;;;22.32;38.12;93936.13;2023054;29;1758;-66
2022/04/08 01:48:48;;;;;;;;;;;;;;;22.32;37.91;93935.31;2023425;29;1148;-67
2022/04/08 01:49:51;;;;;;;;;;;;;;;22.32;38.20;93927.28;2030100;29;1661;-66
2022/04/08 01:50:53;;;;;;;;;;;;;;;22.32;38.09;93936.13;2032889;29;1089;-67
2022/04/08 01:51:54;;;;;;;;;;;;;;;22.31;38.46;93942.53;2031986;29;1726;-67
2022/04/08 01:52:56;;;;;;;;;;;;;;;22.32;38.15;93938.00;2026267;29;1050;-66
2022/04/08 01:53:57;;;;;;;;;;;;;;;22.32;38.16;93938.00;2031554;29;1093;-68
2022/04/08 01:54:59;;;;;;;;;;;;;;;22.32;38.40;93946.03;2031927;29;1590;-68
2022/04/08 01:56:00;;;;;;;;;;;;;;;22.32;38.23;93935.31;2024958;29;1901;-68
2022/04/08 01:57:02;;;;;;;;;;;;;;;22.32;38.13;93933.44;2031948;29;1483;-66
2022/04/08 01:58:04;;;;;;;;;;;;;;;22.33;38.14;93931.56;2032682;29;1104;-67
2022/04/08 01:59:05;;;;;;;;;;;;;;;22.32;38.11;93933.44;2027867;29;1597;-67
2022/04/08 02:00:08;;;;;;;;;;;;;;;22.32;38.52;93921.94;2031152;29;1545;-68
2022/04/08 02:01:10;;;;;;;;;;;;;;;22.32;38.31;93935.31;2031154;29;1496;-67
2022/04/08 02:02:12;;;;;;;;;;;;;;;22.32;38.32;93935.31;2038791;29;1552;-67
2022/04/08 02:03:15;;;;;;;;;;;;;;;22.32;38.45;93952.19;2039336;29;1537;-67
2022/04/08 02:04:17;;;;;;;;;;;;;;;22.31;38.31;93947.09;2028139;29;1583;-67
2022/04/08 02:05:19;;;;;;;;;;;;;;;22.31;38.46;93944.41;2032734;29;1608;-68
2022/04/08 02:06:20;;;;;;;;;;;;;;;22.30;38.32;93943.56;2032789;29;1156;-67
2022/04/08 02:07:22;;;;;;;;;;;;;;;22.31;38.19;93939.06;2032778;29;1736;-67
2022/04/08 02:08:23;;;;;;;;;;;;;;;22.31;38.46;93947.88;2039728;29;1062;-67
2022/04/08 02:09:25;;;;;;;;;;;;;;;22.31;38.16;93950.56;2038611;29;1588;-66
2022/04/08 02:10:27;;;;;;;;;;;;;;;22.30;38.34;93948.13;2023637;29;1589;-68
2022/04/08 02:11:28;;;;;;;;;;;;;;;22.31;38.33;93942.53;2032434;29;1023;-67
2022/04/08 02:12:30;;;;;;;;;;;;;;;22.31;38.32;93949.75;2039879;29;1100;-68
2022/04/08 02:13:33;;;;;;;;;;;;;;;22.31;38.36;93949.75;2039915;29;1366;-67
2022/04/08 02:14:34;;;;;;;;;;;;;;;22.30;38.38;93948.94;2040875;29;1514;-66
2022/04/08 02:15:36;;;;;;;;;;;;;;;22.30;38.14;93943.56;2040635;29;1688;-67
2022/04/08 02:16:38;;;;;;;;;;;;;;;22.30;38.41;93938.22;2027018;29;1943;-67
2022/04/08 02:17:39;;;;;;;;;;;;;;;22.31;38.34;93939.06;2034050;29;1160;-68
2022/04/08 02:18:42;;;;;;;;;;;;;;;22.31;38.55;93944.41;2033523;29;1463;-67
2022/04/08 02:19:43;;;;;;;;;;;;;;;22.32;38.27;93943.34;2032750;29;1627;-68
2022/04/08 02:20:45;;;;;;;;;;;;;;;22.32;38.23;93946.03;2033310;29;1014;-68
2022/04/08 02:21:48;;;;;;;;;;;;;;;22.32;38.38;93951.38;2029997;29;1541;-67
2022/04/08 02:22:50;;;;;;;;;;;;;;;22.31;38.52;93949.75;2034263;29;1095;-67
2022/04/08 02:23:52;;;;;;;;;;;;;;;22.32;38.05;93951.38;2033494;29;1121;-68
2022/04/08 02:24:55;;;;;;;;;;;;;;;22.32;38.21;93952.19;2033347;29;1121;-67
2022/04/08 02:25:57;;;;;;;;;;;;;;;22.31;38.26;93953.25;2033666;29;1682;-68
2022/04/08 02:26:59;;;;;;;;;;;;;;;22.32;38.31;93959.41;2034436;29;1089;-68
2022/04/08 02:28:02;;;;;;;;;;;;;;;22.32;38.36;93962.06;2034138;29;1016;-67
2022/04/08 02:29:03;;;;;;;;;;;;;;;22.31;38.26;93955.13;2033462;29;1841;-68
2022/04/08 02:30:05;;;;;;;;;;;;;;;22.31;38.50;93961.28;2033824;29;1093;-67
2022/04/08 02:31:07;;;;;;;;;;;;;;;22.31;38.37;93952.44;2032432;29;1706;-68
2022/04/08 02:32:11;;;;;;;;;;;;;;;22.32;38.16;93960.19;2028767;29;1422;-68
2022/04/08 02:33:13;;;;;;;;;;;;;;;22.32;38.26;93962.06;2033763;29;1124;-69
2022/04/08 02:34:14;;;;;;;;;;;;;;;22.32;38.30;93962.88;2029275;29;1513;-68
2022/04/08 02:35:16;;;;;;;;;;;;;;;22.31;38.36;93971.97;2027591;29;1816;-68
2022/04/08 02:36:18;;;;;;;;;;;;;;;22.32;38.30;93967.44;2032707;29;1994;-68
2022/04/08 02:37:19;;;;;;;;;;;;;;;22.32;38.30;93967.44;2024555;29;1617;-68
2022/04/08 02:38:21;;;;;;;;;;;;;;;22.32;38.29;93972.78;2032945;29;1161;-68
2022/04/08 02:39:22;;;;;;;;;;;;;;;22.33;38.98;93975.19;2033647;29;1669;-67
2022/04/08 02:40:24;;;;;;;;;;;;;;;22.32;38.38;93968.22;2033253;29;1285;-68
2022/04/08 02:41:25;;;;;;;;;;;;;;;22.32;38.40;93978.13;2034066;29;1663;-68
2022/04/08 02:42:30;;;;;;;;;;;;;;;22.33;38.43;93975.19;2033389;29;1547;-68
2022/04/08 02:43:32;;;;;;;;;;;;;;;22.33;38.32;93977.06;2028069;29;1542;-69
2022/04/08 02:44:33;;;;;;;;;;;;;;;22.33;38.36;93980.53;2034022;29;1074;-68
2022/04/08 02:45:36;;;;;;;;;;;;;;;22.32;38.52;93981.59;2033140;29;1659;-69
2022/04/08 02:46:38;;;;;;;;;;;;;;;22.33;38.42;93991.25;2034097;29;1660;-67
2022/04/08 02:47:43;;;;;;;;;;;;;;;22.34;38.61;93992.09;2033458;29;1540;-68
2022/04/08 02:48:44;;;;;;;;;;;;;;;22.33;38.71;93993.13;2034077;29;999;-68
2022/04/08 02:49:46;;;;;;;;;;;;;;;22.32;38.26;93992.31;2032346;29;1749;-68
2022/04/08 02:50:47;;;;;;;;;;;;;;;22.32;38.47;93999.53;2032735;29;1601;-67
2022/04/08 02:51:49;;;;;;;;;;;;;;;22.31;38.71;94001.41;2034094;29;1210;-68
2022/04/08 02:52:51;;;;;;;;;;;;;;;22.32;38.67;94005.69;2033671;29;1004;-67
2022/04/08 02:53:53;;;;;;;;;;;;;;;22.32;38.51;93989.63;2030484;29;1524;-68
2022/04/08 02:54:54;;;;;;;;;;;;;;;22.32;38.85;93994.19;2031352;29;1652;-68
2022/04/08 02:55:56;;;;;;;;;;;;;;;22.31;38.81;93992.56;2033201;29;1117;-68
2022/04/08 02:56:57;;;;;;;;;;;;;;;22.32;38.69;93988.84;2033845;29;1989;-69
2022/04/08 02:57:59;;;;;;;;;;;;;;;22.31;38.50;93998.72;2032803;29;1673;-69
2022/04/08 02:59:01;;;;;;;;;;;;;;;22.32;38.42;93991.50;2031188;29;1661;-69
2022/04/08 03:00:02;;;;;;;;;;;;;;;22.33;38.51;93996.59;2033351;29;1663;-69
2022/04/08 03:01:04;;;;;;;;;;;;;;;22.34;38.67;94000.09;2033289;29;1098;-70
2022/04/08 03:02:06;;;;;;;;;;;;;;;22.33;38.35;94001.16;2032886;29;1467;-69
2022/04/08 03:03:08;;;;;;;;;;;;;;;22.34;38.41;93997.44;2033754;29;1044;-70
2022/04/08 03:04:10;;;;;;;;;;;;;;;22.33;38.59;93995.78;2033546;29;1053;-69
2022/04/08 03:05:11;;;;;;;;;;;;;;;22.33;38.52;94001.94;2029183;29;1718;-69
2022/04/08 03:06:13;;;;;;;;;;;;;;;21.24;33.09;94013.06;2033476;29;1095;-70
2022/04/08 03:07:15;;;;;;;;;;;;;;;20.46;34.06;94031.28;2033735;29;1653;-67
2022/04/08 03:08:16;;;;;;;;;;;;;;;19.83;35.14;94038.13;2033390;29;973;-67
2022/04/08 03:09:18;;;;;;;;;;;;;;;19.37;35.79;94038.78;2032560;29;1488;-67
2022/04/08 03:10:19;;;;;;;;;;;;;;;18.76;36.11;94043.31;2040936;29;1019;-67
2022/04/08 03:11:21;;;;;;;;;;;;;;;18.27;36.08;94032.59;2039372;29;1425;-66
2022/04/08 03:12:23;;;;;;;;;;;;;;;18.17;36.80;94024.28;2031090;29;1417;-67
2022/04/08 03:13:25;;;;;;;;;;;;;;;18.18;36.76;94025.09;2033268;29;1479;-67
2022/04/08 03:14:27;;;;;;;;;;;;;;;18.18;36.58;94033.06;2032481;29;1653;-67
2022/04/08 03:15:28;;;;;;;;;;;;;;;17.98;36.78;94033.28;2039709;29;1593;-67
2022/04/08 03:16:30;;;;;;;;;;;;;;;17.80;37.01;94028.75;2035905;29;1903;-67
2022/04/08 03:17:32;;;;;;;;;;;;;;;17.61;37.15;94041.13;2032881;29;1462;-66
2022/04/08 03:18:33;;;;;;;;;;;;;;;17.40;37.37;94037.00;2025905;29;989;-67
2022/04/08 03:19:35;;;;;;;;;;;;;;;17.23;37.47;94038.56;2025833;29;1041;-66
2022/04/08 03:20:37;;;;;;;;;;;;;;;17.18;38.06;94029.38;2031832;29;1672;-68
2022/04/08 03:21:38;;;;;;;;;;;;;;;17.17;38.10;94033.06;2033428;29;1732;-67
2022/04/08 03:22:40;;;;;;;;;;;;;;;17.25;37.77;94033.84;2040434;29;1486;-67
2022/04/08 03:23:43;;;;;;;;;;;;;;;17.13;38.16;94037.19;2040203;29;1555;-67
2022/04/08 03:24:44;;;;;;;;;;;;;;;16.90;38.30;94035.06;2032994;29;1109;-67
2022/04/08 03:25:46;;;;;;;;;;;;;;;16.79;38.38;94041.06;2033014;29;1183;-67
2022/04/08 03:26:48;;;;;;;;;;;;;;;16.73;38.67;94041.84;2032880;29;1521;-66
2022/04/08 03:27:49;;;;;;;;;;;;;;;16.82;38.80;94031.84;2028850;29;1133;-68
2022/04/08 03:28:51;;;;;;;;;;;;;;;16.83;38.42;94038.78;2032866;29;1491;-66
2022/04/08 03:29:53;;;;;;;;;;;;;;;16.95;38.59;94047.69;2032872;29;1144;-67
2022/04/08 03:30:54;;;;;;;;;;;;;;;17.01;38.20;94056.63;2040039;29;1490;-66
2022/04/08 03:31:56;;;;;;;;;;;;;;;16.87;38.48;94056.72;2039958;29;1774;-64
2022/04/08 03:32:57;;;;;;;;;;;;;;;16.69;38.66;94053.91;2032551;29;1487;-66
2022/04/08 03:33:59;;;;;;;;;;;;;;;16.65;38.93;94064.13;2032739;29;1629;-67
2022/04/08 03:35:01;;;;;;;;;;;;;;;16.37;39.30;94042.41;2033627;29;989;-66
2022/04/08 03:36:03;;;;;;;;;;;;;;;16.63;38.63;94058.22;2032789;29;1569;-66
2022/04/08 03:37:05;;;;;;;;;;;;;;;16.53;39.19;94061.31;2033249;29;1907;-66
2022/04/08 03:38:06;;;;;;;;;;;;;;;16.42;39.32;94063.81;2024973;29;1444;-68
2022/04/08 03:39:09;;;;;;;;;;;;;;;16.47;39.19;94071.91;2027869;29;1694;-66
2022/04/08 03:40:13;;;;;;;;;;;;;;;16.56;38.80;94068.03;2033426;29;1711;-68
2022/04/08 03:41:15;;;;;;;;;;;;;;;16.53;39.03;94066.63;2033219;29;1624;-67
2022/04/08 03:42:17;;;;;;;;;;;;;;;16.17;39.59;94075.06;2032504;29;1613;-67
2022/04/08 03:43:19;;;;;;;;;;;;;;;16.05;39.96;94072.25;2040752;29;1730;-67
2022/04/08 03:44:21;;;;;;;;;;;;;;;15.98;40.02;94079.38;2039776;29;1373;-66
2022/04/08 03:45:24;;;;;;;;;;;;;;;15.88;39.98;94076.34;2026334;29;1427;-67
2022/04/08 03:46:26;;;;;;;;;;;;;;;15.89;40.31;94085.09;2025734;29;1045;-67
2022/04/08 03:47:28;;;;;;;;;;;;;;;15.76;40.43;94081.44;2032612;29;1061;-67
2022/04/08 03:48:29;;;;;;;;;;;;;;;15.77;40.35;94087.53;2036897;29;1417;-64
2022/04/08 03:49:33;;;;;;;;;;;;;;;15.55;40.55;94086.88;2025307;29;1451;-66
2022/04/08 03:50:35;;;;;;;;;;;;;;;15.47;40.96;94092.38;2033359;29;1164;-68
2022/04/08 03:51:36;;;;;;;;;;;;;;;15.44;40.92;94092.78;2033465;29;1769;-67
2022/04/08 03:52:38;;;;;;;;;;;;;;;15.51;40.84;94091.78;2031747;29;1698;-67
2022/04/08 03:53:39;;;;;;;;;;;;;;;15.53;40.93;94097.66;2033621;29;1536;-67
2022/04/08 03:54:44;;;;;;;;;;;;;;;15.42;40.80;94095.63;2033929;29;1121;-67
2022/04/08 03:55:46;;;;;;;;;;;;;;;15.42;41.06;94088.50;2041240;29;1770;-67
2022/04/08 03:56:47;;;;;;;;;;;;;;;15.48;40.97;94094.84;2032162;29;1939;-67
2022/04/08 03:57:49;;;;;;;;;;;;;;;15.46;40.93;94096.03;2029297;29;1749;-67
2022/04/08 03:58:51;;;;;;;;;;;;;;;15.50;40.70;94102.56;2033406;29;1495;-67
2022/04/08 03:59:53;;;;;;;;;;;;;;;15.49;40.70;94114.97;2030251;29;1664;-65
2022/04/08 04:00:55;;;;;;;;;;;;;;;15.46;40.99;94118.03;2034819;29;1392;-66
2022/04/08 04:01:57;;;;;;;;;;;;;;;15.58;40.70;94121.72;2035491;29;1590;-65
2022/04/08 04:02:59;;;;;;;;;;;;;;;15.55;40.67;94118.66;2038747;29;1762;-66
2022/04/08 04:04:01;;;;;;;;;;;;;;;15.45;40.77;94113.78;2035627;29;1442;-67
2022/04/08 04:05:03;;;;;;;;;;;;;;;15.29;41.07;94128.19;2026133;29;1580;-67
2022/04/08 04:06:05;;;;;;;;;;;;;;;15.30;41.38;94121.06;2024663;29;1785;-67
2022/04/08 04:07:06;;;;;;;;;;;;;;;15.41;41.16;94115.97;2027023;29;1109;-66
2022/04/08 04:08:09;;;;;;;;;;;;;;;15.69;40.73;94115.00;2033564;29;1012;-66
2022/04/08 04:09:10;;;;;;;;;;;;;;;15.68;40.91;94115.19;2033918;29;1501;-68
2022/04/08 04:10:12;;;;;;;;;;;;;;;15.70;40.59;94127.22;2032437;29;1493;-66
2022/04/08 04:11:16;;;;;;;;;;;;;;;15.45;40.96;94128.81;2028371;29;1433;-67
2022/04/08 04:12:18;;;;;;;;;;;;;;;15.26;41.19;94128.59;2036069;29;1869;-67
2022/04/08 04:13:19;;;;;;;;;;;;;;;15.22;41.47;94127.34;2039078;29;1603;-66
2022/04/08 04:14:21;;;;;;;;;;;;;;;15.16;41.25;94133.41;2023127;29;1204;-67
2022/04/08 04:15:23;;;;;;;;;;;;;;;15.18;41.52;94123.47;2026295;29;1676;-65
2022/04/08 04:16:24;;;;;;;;;;;;;;;15.16;41.69;94125.50;2031901;29;1646;-66
2022/04/08 04:17:28;;;;;;;;;;;;;;;15.80;40.95;94130.31;2026480;29;1911;-68
2022/04/08 04:18:29;;;;;;;;;;;;;;;16.05;39.81;94132.38;2035928;29;1818;-65
2022/04/08 04:19:31;;;;;;;;;;;;;;;15.90;40.45;94134.38;2038641;29;1013;-65
2022/04/08 04:20:32;;;;;;;;;;;;;;;15.89;40.06;94143.38;2032124;29;955;-67
2022/04/08 04:21:34;;;;;;;;;;;;;;;16.20;40.05;94142.75;2033176;29;1265;-67
2022/04/08 04:22:35;;;;;;;;;;;;;;;16.73;39.28;94143.47;2027340;29;1097;-67
2022/04/08 04:23:37;;;;;;;;;;;;;;;17.22;38.68;94151.88;2025017;29;1565;-67
2022/04/08 04:24:39;;;;;;;;;;;;;;;17.70;37.99;94150.59;2026921;29;1592;-67
2022/04/08 04:25:46;;;;;;;;;;;;;;;18.03;37.01;94153.03;1856348;29;10000381;-65
2022/04/08 04:26:48;;;;;;;;;;;;;;;18.27;36.81;94159.41;1506400;29;10001206;-65
2022/04/08 04:27:49;;;;;;;;;;;;;;;18.45;36.56;94159.44;2025104;29;1617;-65
2022/04/08 04:28:51;;;;;;;;;;;;;;;18.61;36.04;94151.91;2031658;29;1508;-65
2022/04/08 04:29:52;;;;;;;;;;;;;;;18.74;35.98;94157.13;2031757;29;1775;-65
2022/04/08 04:30:54;;;;;;;;;;;;;;;18.83;35.82;94155.81;2032606;29;1511;-65
2022/04/08 04:31:56;;;;;;;;;;;;;;;18.91;35.68;94163.50;2032938;29;1297;-66
2022/04/08 04:32:58;;;;;;;;;;;;;;;19.00;35.50;94162.16;2031298;29;1099;-65
2022/04/08 04:34:00;;;;;;;;;;;;;;;19.07;35.35;94171.94;2026383;29;1249;-65
2022/04/08 04:35:06;;;;;;;;;;;;;;;19.14;35.49;94173.47;2031793;29;1351;-66
2022/04/08 04:36:08;;;;;;;;;;;;;;;19.20;35.22;94158.47;2032530;29;1765;-66
2022/04/08 04:37:09;;;;;;;;;;;;;;;19.25;35.30;94157.78;2038632;29;1975;-66
2022/04/08 04:38:11;;;;;;;;;;;;;;;19.30;35.43;94149.94;2032573;29;1133;-65
2022/04/08 04:39:13;;;;;;;;;;;;;;;19.34;35.40;94151.94;2032229;29;1014;-66
2022/04/08 04:40:14;;;;;;;;;;;;;;;19.38;35.06;94150.47;1149205;29;10000128;-66
2022/04/08 04:41:17;;;;;;;;;;;;;;;19.42;35.22;94146.28;2019824;29;1033;-66
2022/04/08 04:42:19;;;;;;;;;;;;;;;19.47;35.07;94153.63;2030989;29;1316;-67
2022/04/08 04:43:20;;;;;;;;;;;;;;;19.51;35.17;94153.97;2030693;29;1504;-67
2022/04/08 04:44:22;;;;;;;;;;;;;;;19.54;35.20;94161.53;2025614;29;1659;-67
2022/04/08 04:45:24;;;;;;;;;;;;;;;19.58;34.92;94138.75;2031768;29;1433;-66
2022/04/08 04:46:26;;;;;;;;;;;;;;;19.61;35.16;94147.09;2033214;29;1641;-66
2022/04/08 04:47:28;;;;;;;;;;;;;;;19.63;35.11;94158.34;2033441;29;1042;-66
2022/04/08 04:48:30;;;;;;;;;;;;;;;19.67;35.01;94164.84;2033304;29;1624;-67
2022/04/08 04:49:31;;;;;;;;;;;;;;;19.70;35.03;94166.25;2040584;29;1525;-67
2022/04/08 04:50:33;;;;;;;;;;;;;;;19.73;35.02;94178.31;2040520;29;1027;-66
2022/04/08 04:51:34;;;;;;;;;;;;;;;19.76;34.86;94165.34;2029205;29;1892;-66
2022/04/08 04:52:36;;;;;;;;;;;;;;;19.77;35.03;94166.94;2027431;29;1040;-66
2022/04/08 04:53:38;;;;;;;;;;;;;;;19.80;35.01;94168.34;2032638;29;1015;-65
2022/04/08 04:54:41;;;;;;;;;;;;;;;19.82;34.97;94172.41;2032764;29;1599;-66
2022/04/08 04:55:42;;;;;;;;;;;;;;;19.84;34.80;94202.34;2028183;29;1111;-66
2022/04/08 04:56:44;;;;;;;;;;;;;;;19.86;34.99;94189.59;2039714;29;1774;-66
2022/04/08 04:57:47;;;;;;;;;;;;;;;19.88;34.72;94189.34;2039696;29;2021;-67
2022/04/08 04:58:50;;;;;;;;;;;;;;;19.91;34.97;94198.75;2032118;29;1052;-66
2022/04/08 04:59:53;;;;;;;;;;;;;;;19.91;34.91;94202.22;2040843;29;1212;-66
2022/04/08 05:00:55;;;;;;;;;;;;;;;19.94;34.91;94204.44;2039827;29;1591;-66
2022/04/08 05:01:57;;;;;;;;;;;;;;;19.97;34.91;94197.84;2040546;29;1152;-67
2022/04/08 05:02:59;;;;;;;;;;;;;;;19.98;34.87;94200.31;2040297;29;1008;-68
2022/04/08 05:04:00;;;;;;;;;;;;;;;19.99;34.88;94203.78;2040448;29;1148;-65
2022/04/08 05:05:03;;;;;;;;;;;;;;;20.00;34.66;94203.53;2037988;29;2010;-65
2022/04/08 05:06:04;;;;;;;;;;;;;;;20.02;34.70;94205.97;2023544;29;1049;-65
2022/04/08 05:07:06;;;;;;;;;;;;;;;20.02;34.74;94206.78;2021980;29;1184;-66
2022/04/08 05:08:08;;;;;;;;;;;;;;;20.04;34.66;94217.25;2025545;29;1215;-66
2022/04/08 05:09:09;;;;;;;;;;;;;;;20.04;34.55;94206.56;2031824;29;1188;-66
2022/04/08 05:10:11;;;;;;;;;;;;;;;20.06;34.85;94207.97;2031996;29;950;-66
2022/04/08 05:11:12;;;;;;;;;;;;;;;20.08;34.82;94199.72;2025084;29;1113;-68
2022/04/08 05:12:14;;;;;;;;;;;;;;;20.09;34.58;94212.03;2025342;29;1104;-66
2022/04/08 05:13:15;;;;;;;;;;;;;;;20.11;34.81;94209.94;2024785;29;1334;-66
2022/04/08 05:14:17;;;;;;;;;;;;;;;20.12;34.84;94214.25;2024861;29;1137;-66
2022/04/08 05:15:19;;;;;;;;;;;;;;;20.13;34.84;94215.88;2025018;29;1110;-66
2022/04/08 05:16:20;;;;;;;;;;;;;;;20.14;34.51;94217.47;2025375;29;1009;-66
2022/04/08 05:17:22;;;;;;;;;;;;;;;20.16;34.75;94218.06;2027982;29;1033;-65
2022/04/08 05:18:24;;;;;;;;;;;;;;;20.17;34.66;94224.22;2031734;29;1926;-66
2022/04/08 05:19:25;;;;;;;;;;;;;;;20.19;34.58;94224.81;2032424;29;1637;-66
2022/04/08 05:20:27;;;;;;;;;;;;;;;20.20;34.76;94226.44;2024530;29;1172;-66
2022/04/08 05:21:29;;;;;;;;;;;;;;;20.21;34.76;94228.06;2024081;29;1129;-66
2022/04/08 05:22:31;;;;;;;;;;;;;;;20.22;34.50;94235.03;2025237;29;1156;-65
2022/04/08 05:23:33;;;;;;;;;;;;;;;20.23;34.53;94224.13;2025223;29;1031;-67
2022/04/08 05:24:35;;;;;;;;;;;;;;;20.24;34.66;94230.28;2025185;29;1097;-67
2022/04/08 05:25:36;;;;;;;;;;;;;;;20.25;34.62;94221.22;2025277;29;1119;-65
2022/04/08 05:26:38;;;;;;;;;;;;;;;20.25;34.69;94232.72;2025425;29;1160;-66